Time;durP1;ratioP1;P1;durP2;ratioP2;P2;SDS_P1;SDS_P2;PMS_P1;PMS_P2;Temp;Humidity;BMP_temperature;BMP_pressure;BME280_temperature;BME280_humidity;BME280_pressure;Samples;Min_cycle;Max_cycle;Signal;HPM_P1;HPM_P2
2021/08/25 00:02:20;;;;;;;16.87;9.83;;;;;;;12.14;100.00;94306.69;5074609;28;20205;-81
2021/08/25 00:04:46;;;;;;;15.93;10.37;;;;;;;12.21;100.00;94304.91;5074479;28;20199;-81
2021/08/25 00:07:13;;;;;;;15.50;10.30;;;;;;;12.33;100.00;94301.72;5074256;28;20649;-82
2021/08/25 00:09:41;;;;;;;18.07;10.67;;;;;;;12.39;100.00;94293.06;5074319;28;20321;-81
2021/08/25 00:12:09;;;;;;;21.53;13.27;;;;;;;12.50;100.00;94295.09;5074190;28;20661;-81
2021/08/25 00:14:37;;;;;;;19.57;11.83;;;;;;;12.57;100.00;94290.69;5074276;28;20228;-81
2021/08/25 00:17:05;;;;;;;16.93;11.10;;;;;;;12.61;100.00;94292.88;5074497;28;20221;-82
2021/08/25 00:19:32;;;;;;;17.87;11.97;;;;;;;12.66;100.00;94286.06;5074254;28;20198;-81
2021/08/25 00:21:58;;;;;;;18.83;10.70;;;;;;;12.67;100.00;94295.50;5073806;28;20205;-81
2021/08/25 00:24:25;;;;;;;17.63;11.07;;;;;;;12.70;100.00;94291.69;5072982;28;20214;-82
2021/08/25 00:26:51;;;;;;;16.80;11.13;;;;;;;12.67;100.00;94286.84;5073755;28;20569;-81
2021/08/25 00:29:18;;;;;;;21.87;11.77;;;;;;;12.67;100.00;94284.22;5073996;28;20205;-82
2021/08/25 00:31:45;;;;;;;20.17;12.47;;;;;;;12.66;100.00;94272.94;5074052;28;20199;-81
2021/08/25 00:34:13;;;;;;;17.15;11.13;;;;;;;12.58;100.00;94275.75;5073851;28;20328;-82
2021/08/25 00:36:39;;;;;;;18.57;11.70;;;;;;;12.47;100.00;94271.91;5073579;28;20237;-82
2021/08/25 00:39:06;;;;;;;19.23;11.73;;;;;;;12.49;100.00;94282.19;5073785;28;20543;-82
2021/08/25 00:41:32;;;;;;;22.90;13.13;;;;;;;12.64;100.00;94277.59;5074221;28;20213;-82
2021/08/25 00:43:59;;;;;;;18.23;11.63;;;;;;;12.62;100.00;94276.16;5074661;28;20285;-83
2021/08/25 00:46:27;;;;;;;20.40;11.88;;;;;;;12.67;100.00;94276.38;5074086;28;20238;-83
2021/08/25 00:48:54;;;;;;;14.73;10.87;;;;;;;12.70;100.00;94276.78;5073727;28;20199;-82
2021/08/25 00:51:23;;;;;;;18.23;11.93;;;;;;;12.69;100.00;94267.31;5074077;28;20207;-81
2021/08/25 00:53:50;;;;;;;17.47;10.70;;;;;;;12.71;100.00;94269.75;5073404;28;20681;-81
2021/08/25 00:56:16;;;;;;;15.23;10.13;;;;;;;12.71;100.00;94270.53;5073355;28;20709;-83
2021/08/25 00:58:43;;;;;;;16.23;10.73;;;;;;;12.74;100.00;94269.34;5073571;28;20195;-83
2021/08/25 01:01:18;;;;;;;17.90;10.97;;;;;;;12.75;100.00;94263.88;5073746;28;20209;-82
2021/08/25 01:03:49;;;;;;;17.47;10.83;;;;;;;12.71;100.00;94264.50;5073372;28;20202;-81
2021/08/25 01:06:21;;;;;;;17.88;10.55;;;;;;;12.66;100.00;94261.69;5073929;28;20199;-80
2021/08/25 01:08:49;;;;;;;19.80;11.77;;;;;;;12.62;100.00;94265.69;5074010;28;20202;-81
2021/08/25 01:11:15;;;;;;;18.33;10.73;;;;;;;12.57;100.00;94259.25;5073698;28;20210;-82
2021/08/25 01:13:42;;;;;;;17.43;10.27;;;;;;;12.47;100.00;94261.44;5073439;28;20199;-82
2021/08/25 01:16:10;;;;;;;17.87;11.47;;;;;;;12.30;100.00;94255.78;5073040;28;20237;-81
2021/08/25 01:18:37;;;;;;;16.60;10.93;;;;;;;12.12;100.00;94253.72;5073372;28;20198;-82
2021/08/25 01:21:05;;;;;;;19.37;12.30;;;;;;;11.97;100.00;94255.69;5072966;28;20202;-81
2021/08/25 01:23:34;;;;;;;19.03;12.43;;;;;;;12.01;100.00;94249.88;5073576;28;20210;-82
2021/08/25 01:26:03;;;;;;;19.87;12.23;;;;;;;11.96;100.00;94248.88;5073704;28;20206;-81
2021/08/25 01:28:35;;;;;;;20.07;12.47;;;;;;;12.05;100.00;94246.88;5073490;28;20209;-82
2021/08/25 01:31:03;;;;;;;16.37;11.53;;;;;;;11.98;100.00;94244.25;5072934;28;20488;-82
2021/08/25 01:33:30;;;;;;;19.03;13.50;;;;;;;11.92;100.00;94242.41;5072861;28;20554;-82
2021/08/25 01:35:58;;;;;;;23.10;12.97;;;;;;;12.03;100.00;94241.84;5072516;28;20693;-81
2021/08/25 01:38:29;;;;;;;20.00;12.87;;;;;;;12.07;100.00;94250.88;5073143;28;20210;-82
2021/08/25 01:40:56;;;;;;;18.63;12.40;;;;;;;12.13;100.00;94263.19;5072956;28;20202;-81
2021/08/25 01:43:22;;;;;;;20.40;13.23;;;;;;;12.09;100.00;94248.91;5072813;28;20198;-82
2021/08/25 01:45:49;;;;;;;19.10;12.80;;;;;;;12.14;100.00;94253.53;5072645;28;20234;-81
2021/08/25 01:48:17;;;;;;;18.87;12.47;;;;;;;12.09;100.00;94238.44;5072756;28;20206;-82
2021/08/25 01:50:43;;;;;;;18.33;12.00;;;;;;;11.96;100.00;94241.81;5072836;28;20218;-82
2021/08/25 01:53:11;;;;;;;18.63;13.30;;;;;;;11.92;100.00;94242.41;5073090;28;20202;-82
2021/08/25 01:55:37;;;;;;;17.90;12.33;;;;;;;11.86;100.00;94236.13;5072897;28;20222;-82
2021/08/25 01:58:05;;;;;;;20.50;12.87;;;;;;;11.81;100.00;94238.53;5072880;28;20657;-82
2021/08/25 02:00:31;;;;;;;21.70;13.47;;;;;;;11.85;100.00;94235.31;5072682;28;20209;-82
2021/08/25 02:02:58;;;;;;;23.10;14.30;;;;;;;11.81;100.00;94234.09;5072718;28;20581;-82
2021/08/25 02:05:26;;;;;;;19.33;12.67;;;;;;;11.74;100.00;94238.50;5072889;28;20194;-81
2021/08/25 02:07:52;;;;;;;22.37;13.07;;;;;;;11.77;100.00;94225.00;5072573;28;20199;-81
2021/08/25 02:10:19;;;;;;;18.30;11.87;;;;;;;11.87;100.00;94227.25;5072563;28;20567;-81
2021/08/25 02:12:45;;;;;;;21.50;12.57;;;;;;;11.84;100.00;94225.84;5072642;28;20226;-82
2021/08/25 02:15:12;;;;;;;19.00;12.20;;;;;;;11.90;100.00;94215.59;5072564;28;20207;-82
2021/08/25 02:17:40;;;;;;;19.50;10.33;;;;;;;11.84;100.00;94218.00;5072430;28;20689;-82
2021/08/25 02:20:08;;;;;;;17.83;10.93;;;;;;;11.76;100.00;94223.41;5072601;28;20198;-82
2021/08/25 02:22:36;;;;;;;21.17;11.23;;;;;;;11.78;100.00;94216.16;5072676;28;20199;-81
2021/08/25 02:25:03;;;;;;;15.73;10.30;;;;;;;11.72;100.00;94211.72;5072740;28;20202;-81
2021/08/25 02:27:29;;;;;;;15.70;9.53;;;;;;;11.75;100.00;94218.38;5072584;28;20203;-81
2021/08/25 02:29:56;;;;;;;15.20;9.07;;;;;;;11.65;100.00;94208.28;5072436;28;20199;-81
2021/08/25 02:32:23;;;;;;;14.93;9.50;;;;;;;11.62;100.00;94209.50;5072599;28;20199;-82
2021/08/25 02:34:50;;;;;;;16.47;10.53;;;;;;;11.61;100.00;94194.78;5072506;28;20535;-81
2021/08/25 02:37:16;;;;;;;14.23;9.47;;;;;;;11.57;100.00;94201.41;5072459;28;20238;-82
2021/08/25 02:39:45;;;;;;;12.80;8.93;;;;;;;11.46;100.00;94194.16;5072341;28;20203;-81
2021/08/25 02:42:11;;;;;;;13.67;8.77;;;;;;;11.43;100.00;94192.72;5072487;28;20203;-82
2021/08/25 02:44:38;;;;;;;12.50;8.73;;;;;;;11.41;100.00;94194.72;5073079;28;20553;-83
2021/08/25 02:47:05;;;;;;;15.50;9.03;;;;;;;11.48;100.00;94187.69;5074113;28;20233;-81
2021/08/25 02:49:31;;;;;;;15.50;9.43;;;;;;;11.56;100.00;94183.31;5076470;28;20289;-82
2021/08/25 02:51:58;;;;;;;12.77;8.13;;;;;;;11.48;100.00;94185.09;5076409;28;20208;-81
2021/08/25 02:54:24;;;;;;;16.83;8.30;;;;;;;11.48;100.00;94173.84;5076483;28;20199;-81
2021/08/25 02:56:52;;;;;;;15.13;9.10;;;;;;;11.57;100.00;94182.31;5077686;28;20588;-82
2021/08/25 02:59:19;;;;;;;15.13;8.47;;;;;;;11.59;100.00;94185.53;5077916;28;20210;-82
2021/08/25 03:01:45;;;;;;;12.57;9.55;;;;;;;11.58;100.00;94181.31;5074919;28;20434;-82
2021/08/25 03:04:12;;;;;;;13.97;9.07;;;;;;;11.69;100.00;94180.75;5075969;28;20213;-79
2021/08/25 03:06:38;;;;;;;15.87;9.70;;;;;;;11.75;100.00;94182.56;5075661;28;20198;-81
2021/08/25 03:09:05;;;;;;;12.97;8.57;;;;;;;11.76;100.00;94186.00;5075592;28;20215;-81
2021/08/25 03:11:33;;;;;;;17.93;9.60;;;;;;;11.74;100.00;94178.34;5075387;28;20211;-81
2021/08/25 03:14:01;;;;;;;13.23;8.57;;;;;;;11.71;100.00;94170.06;5074277;28;20194;-82
2021/08/25 03:16:27;;;;;;;15.40;9.90;;;;;;;11.73;100.00;94170.69;5075391;28;20226;-83
2021/08/25 03:18:54;;;;;;;17.60;9.97;;;;;;;11.72;100.00;94177.72;5075325;28;20202;-83
2021/08/25 03:21:20;;;;;;;15.20;9.23;;;;;;;11.76;100.00;94176.34;5075479;28;20199;-82
2021/08/25 03:23:47;;;;;;;15.90;9.10;;;;;;;11.64;100.00;94167.44;5075073;28;20209;-81
2021/08/25 03:26:13;;;;;;;16.03;9.40;;;;;;;11.66;100.00;94183.75;5075296;28;20199;-81
2021/08/25 03:28:40;;;;;;;18.77;9.03;;;;;;;11.68;100.00;94181.75;5075230;28;20285;-81
2021/08/25 03:31:08;;;;;;;14.37;8.70;;;;;;;11.72;100.00;94177.72;5075077;28;20195;-81
2021/08/25 03:33:34;;;;;;;11.53;8.10;;;;;;;11.78;100.00;94182.16;5075306;28;20562;-82
2021/08/25 03:36:01;;;;;;;11.67;7.93;;;;;;;11.88;100.00;94179.16;5075337;28;20233;-82
2021/08/25 03:38:27;;;;;;;14.03;8.20;;;;;;;11.93;100.00;94174.19;5075155;28;20203;-82
2021/08/25 03:40:54;;;;;;;12.77;7.63;;;;;;;11.94;100.00;94181.03;5075079;28;20203;-82
2021/08/25 03:43:20;;;;;;;12.60;7.20;;;;;;;11.95;100.00;94187.06;5075203;28;20206;-83
2021/08/25 03:45:47;;;;;;;12.83;8.37;;;;;;;12.02;100.00;94180.84;5074765;28;20238;-81
2021/08/25 03:48:14;;;;;;;13.23;7.13;;;;;;;12.00;100.00;94182.03;5074931;28;20194;-82
2021/08/25 03:50:41;;;;;;;14.53;8.50;;;;;;;12.00;100.00;94169.75;5074912;28;20650;-81
2021/08/25 03:53:07;;;;;;;15.10;8.83;;;;;;;12.01;100.00;94170.56;5074667;28;20206;-83
2021/08/25 03:55:34;;;;;;;16.03;8.60;;;;;;;12.04;100.00;94170.19;5074675;28;20202;-82
2021/08/25 03:58:00;;;;;;;13.93;8.57;;;;;;;12.03;100.00;94173.78;5074758;28;20230;-81
2021/08/25 04:00:27;;;;;;;13.10;8.40;;;;;;;12.01;100.00;94168.75;5074794;28;20202;-82
2021/08/25 04:02:53;;;;;;;12.43;7.30;;;;;;;11.94;100.00;94165.34;5074711;28;20210;-82
2021/08/25 04:05:21;;;;;;;13.37;8.30;;;;;;;11.90;100.00;94171.13;5074787;28;20210;-81
2021/08/25 04:07:48;;;;;;;12.83;8.03;;;;;;;11.88;100.00;94183.59;5074617;28;20198;-81
2021/08/25 04:10:14;;;;;;;12.77;7.27;;;;;;;11.87;100.00;94180.16;5074584;28;20194;-81
2021/08/25 04:12:41;;;;;;;10.87;7.27;;;;;;;11.85;100.00;94182.19;5074448;28;20229;-82
2021/08/25 04:15:09;;;;;;;12.20;7.13;;;;;;;11.84;100.00;94183.19;5074461;28;20203;-82
2021/08/25 04:17:35;;;;;;;11.07;7.00;;;;;;;11.84;100.00;94183.19;5074314;28;20226;-81
2021/08/25 04:20:02;;;;;;;12.40;6.70;;;;;;;11.82;100.00;94183.41;5074208;28;20202;-82
2021/08/25 04:22:29;;;;;;;12.60;7.70;;;;;;;11.85;100.00;94180.34;5074238;28;20202;-80
2021/08/25 04:24:56;;;;;;;16.03;8.30;;;;;;;11.84;100.00;94184.00;5073848;28;20195;-81
2021/08/25 04:27:23;;;;;;;10.73;7.97;;;;;;;11.83;100.00;94187.59;5074254;28;20210;-83
2021/08/25 04:29:50;;;;;;;18.13;8.27;;;;;;;11.81;100.00;94179.16;5074100;28;20203;-82
2021/08/25 04:32:17;;;;;;;14.13;8.60;;;;;;;11.78;100.00;94171.69;5074099;28;20210;-82
2021/08/25 04:34:43;;;;;;;15.43;8.33;;;;;;;11.75;100.00;94172.09;5073798;28;20784;-82
2021/08/25 04:37:10;;;;;;;14.47;8.53;;;;;;;11.72;100.00;94182.94;5073971;28;20233;-81
2021/08/25 04:39:37;;;;;;;13.77;7.90;;;;;;;11.59;100.00;94178.50;5073980;28;20210;-82
2021/08/25 04:42:04;;;;;;;12.63;8.27;;;;;;;11.63;100.00;94178.91;5073846;28;20202;-80
2021/08/25 04:44:31;;;;;;;14.00;8.83;;;;;;;11.54;100.00;94172.22;5074034;28;20202;-83
2021/08/25 04:46:57;;;;;;;16.93;9.53;;;;;;;11.51;100.00;94175.22;5073967;28;20234;-81
2021/08/25 04:49:24;;;;;;;13.23;8.43;;;;;;;11.45;100.00;94172.41;5074091;28;20201;-81
2021/08/25 04:51:50;;;;;;;14.47;8.30;;;;;;;11.40;100.00;94168.78;5074747;28;20206;-81
2021/08/25 04:54:17;;;;;;;14.80;7.80;;;;;;;11.40;100.00;94158.31;5074720;28;20205;-83
2021/08/25 04:56:45;;;;;;;19.83;8.80;;;;;;;11.30;100.00;94163.91;5073480;28;20701;-80
2021/08/25 04:59:11;;;;;;;18.03;8.57;;;;;;;11.26;100.00;94157.47;5073068;28;20226;-80
2021/08/25 05:01:38;;;;;;;18.17;9.27;;;;;;;11.21;100.00;94155.44;5073618;28;20205;-81
2021/08/25 05:04:04;;;;;;;16.70;7.87;;;;;;;11.18;100.00;94161.03;5073174;28;20213;-80
2021/08/25 05:06:31;;;;;;;14.00;7.50;;;;;;;11.18;100.00;94155.03;5073603;28;20604;-81
2021/08/25 05:08:58;;;;;;;13.07;7.90;;;;;;;11.14;100.00;94154.59;5072764;28;20205;-80
2021/08/25 05:11:25;;;;;;;18.47;7.60;;;;;;;11.13;100.00;94155.59;5073256;28;20206;-79
2021/08/25 05:13:52;;;;;;;14.47;8.50;;;;;;;11.12;100.00;94156.59;5073296;28;20198;-80
2021/08/25 05:16:19;;;;;;;15.30;8.27;;;;;;;11.06;100.00;94155.56;5072914;28;20434;-81
2021/08/25 05:18:45;;;;;;;15.57;8.17;;;;;;;11.09;100.00;94167.41;5073409;28;20203;-81
2021/08/25 05:21:12;;;;;;;12.67;7.90;;;;;;;11.15;100.00;94161.44;5073688;28;20200;-82
2021/08/25 05:23:38;;;;;;;15.27;8.07;;;;;;;11.20;100.00;94174.72;5072254;28;20553;-81
2021/08/25 05:26:06;;;;;;;15.53;8.00;;;;;;;11.19;100.00;94175.72;5072969;28;20604;-81
2021/08/25 05:28:33;;;;;;;21.57;8.00;;;;;;;11.21;100.00;94186.00;5073125;28;20206;-82
2021/08/25 05:31:01;;;;;;;16.40;8.50;;;;;;;11.27;100.00;94177.34;5072808;28;20542;-82
2021/08/25 05:33:28;;;;;;;15.00;7.93;;;;;;;11.27;100.00;94186.03;5073236;28;20195;-81
2021/08/25 05:35:54;;;;;;;15.50;8.33;;;;;;;11.30;100.00;94184.81;5073237;28;20209;-82
2021/08/25 05:38:21;;;;;;;14.03;7.73;;;;;;;11.37;100.00;94196.09;5073167;28;20253;-82
2021/08/25 05:40:47;;;;;;;14.03;7.47;;;;;;;11.42;100.00;94188.50;5073007;28;20225;-82
2021/08/25 05:43:15;;;;;;;14.17;8.03;;;;;;;11.52;100.00;94195.16;5072956;28;20619;-81
2021/08/25 05:45:41;;;;;;;17.70;8.13;;;;;;;11.53;100.00;94189.75;5072672;28;20257;-81
2021/08/25 05:48:09;;;;;;;12.30;7.93;;;;;;;11.59;100.00;94186.34;5073054;28;20206;-82
2021/08/25 05:50:36;;;;;;;12.80;8.13;;;;;;;11.72;100.00;94190.78;5072943;28;20207;-81
2021/08/25 05:53:02;;;;;;;15.33;7.67;;;;;;;11.73;100.00;94195.03;5072949;28;20210;-81
2021/08/25 05:55:29;;;;;;;12.63;8.30;;;;;;;11.76;100.00;94186.78;5072805;28;20195;-81
2021/08/25 05:57:55;;;;;;;14.83;8.43;;;;;;;11.83;100.00;94187.59;5072532;28;20697;-82
2021/08/25 06:00:22;;;;;;;17.73;7.67;;;;;;;11.90;100.00;94190.25;5072700;28;20650;-81
2021/08/25 06:02:48;;;;;;;15.23;8.20;;;;;;;11.90;100.00;94181.59;5072607;28;20559;-81
2021/08/25 06:05:16;;;;;;;13.37;8.20;;;;;;;11.88;100.00;94183.59;5073014;28;20199;-82
2021/08/25 06:07:43;;;;;;;13.83;8.37;;;;;;;11.89;100.00;94183.41;5072978;28;20221;-82
2021/08/25 06:10:11;;;;;;;11.97;7.70;;;;;;;11.97;100.00;94188.50;5072713;28;20203;-81
2021/08/25 06:12:37;;;;;;;16.73;7.53;;;;;;;12.07;100.00;94193.31;5072602;28;20207;-81
2021/08/25 06:15:04;;;;;;;10.80;7.30;;;;;;;12.11;100.00;94191.94;5072698;28;20199;-80
2021/08/25 06:17:31;;;;;;;14.13;7.93;;;;;;;12.13;100.00;94194.34;5072693;28;20231;-80
2021/08/25 06:19:57;;;;;;;14.03;7.80;;;;;;;12.22;100.00;94195.75;5072580;28;20199;-82
2021/08/25 06:22:25;;;;;;;13.63;7.93;;;;;;;12.36;100.00;94196.59;5074924;28;20577;-81
2021/08/25 06:24:52;;;;;;;10.80;6.83;;;;;;;12.35;100.00;94194.97;5076535;28;20654;-81
2021/08/25 06:27:18;;;;;;;11.13;7.37;;;;;;;12.32;100.00;94206.66;5076410;28;20203;-81
2021/08/25 06:29:45;;;;;;;13.33;7.07;;;;;;;12.27;100.00;94205.63;5076401;28;20199;-82
2021/08/25 06:32:11;;;;;;;11.47;6.63;;;;;;;12.37;100.00;94206.03;5076422;28;20210;-81
2021/08/25 06:34:38;;;;;;;10.90;7.23;;;;;;;12.39;100.00;94204.03;5076217;28;20202;-81
2021/08/25 06:37:04;;;;;;;11.43;6.77;;;;;;;12.53;100.00;94210.09;5076122;28;20245;-81
2021/08/25 06:39:32;;;;;;;10.57;6.20;;;;;;;12.62;100.00;94197.59;5075889;28;20557;-84
2021/08/25 06:41:59;;;;;;;14.80;7.17;;;;;;;12.67;100.00;94192.53;5076112;28;20195;-82
2021/08/25 06:44:25;;;;;;;10.90;6.47;;;;;;;12.67;100.00;94192.53;5076493;28;20449;-82
2021/08/25 06:46:52;;;;;;;11.52;6.88;;;;;;;12.66;100.00;94168.16;5076543;28;20439;-80
2021/08/25 06:49:19;;;;;;;12.00;6.63;;;;;;;12.61;100.00;94177.63;5076802;28;20298;-81
2021/08/25 06:51:45;;;;;;;12.60;6.97;;;;;;;12.62;100.00;94181.88;5076233;28;20204;-82
2021/08/25 06:54:12;;;;;;;16.45;6.47;;;;;;;12.70;100.00;94179.03;5075810;28;20210;-83
2021/08/25 06:56:39;;;;;;;9.63;5.93;;;;;;;12.76;100.00;94178.25;5075973;28;20202;-81
2021/08/25 06:59:06;;;;;;;12.80;6.03;;;;;;;12.70;100.00;94176.41;5075707;28;20236;-82
2021/08/25 07:01:32;;;;;;;13.65;6.20;;;;;;;12.80;100.00;94178.63;5075600;28;20234;-82
2021/08/25 07:03:59;;;;;;;14.45;6.15;;;;;;;12.83;100.00;94165.91;5075681;28;20205;-83
2021/08/25 07:06:25;;;;;;;12.18;5.88;;;;;;;12.86;100.00;94168.13;5075517;28;20202;-82
2021/08/25 07:08:52;;;;;;;11.67;6.30;;;;;;;12.87;100.00;94164.53;5074566;28;20628;-81
2021/08/25 07:11:18;;;;;;;9.43;5.80;;;;;;;12.95;100.00;94169.50;5075978;28;20202;-81
2021/08/25 07:13:46;;;;;;;10.30;5.17;;;;;;;13.01;100.00;94174.97;5075544;28;20210;-81
2021/08/25 07:16:14;;;;;;;10.10;5.70;;;;;;;13.15;100.00;94179.16;5075230;28;20199;-82
2021/08/25 07:18:43;;;;;;;11.57;5.53;;;;;;;13.19;100.00;94177.75;5075392;28;20230;-81
2021/08/25 07:21:10;;;;;;;13.17;5.13;;;;;;;13.42;100.00;94181.72;5075413;28;20286;-81
2021/08/25 07:23:36;;;;;;;11.95;5.18;;;;;;;13.49;100.00;94182.50;5075484;28;20207;-82
2021/08/25 07:26:03;;;;;;;7.55;5.00;;;;;;;13.46;100.00;94188.16;5075435;28;20202;-82
2021/08/25 07:28:29;;;;;;;8.05;5.30;;;;;;;13.44;100.00;94184.94;5075110;28;20674;-82
2021/08/25 07:30:57;;;;;;;9.27;5.15;;;;;;;13.49;100.00;94187.75;5075290;28;20209;-83
2021/08/25 07:33:24;;;;;;;8.30;5.35;;;;;;;13.45;100.00;94187.34;5075036;28;20199;-83
2021/08/25 07:35:51;;;;;;;7.10;4.72;;;;;;;13.63;100.00;94191.91;5075183;28;20210;-80
2021/08/25 07:38:18;;;;;;;7.20;4.65;;;;;;;13.76;99.35;94180.56;5074789;28;20238;-81
2021/08/25 07:40:44;;;;;;;7.38;4.90;;;;;;;13.77;100.00;94178.75;5075075;28;20209;-82
2021/08/25 07:43:11;;;;;;;8.65;4.80;;;;;;;13.76;100.00;94177.16;5075258;28;20199;-81
2021/08/25 07:45:37;;;;;;;7.63;4.65;;;;;;;13.79;100.00;94171.44;5074766;28;20235;-82
2021/08/25 07:48:06;;;;;;;9.60;4.50;;;;;;;13.83;98.87;94172.66;5074820;28;20203;-81
2021/08/25 07:50:33;;;;;;;8.15;4.28;;;;;;;13.98;100.00;94167.91;5074635;28;20205;-82
2021/08/25 07:52:59;;;;;;;7.72;4.80;;;;;;;14.07;99.55;94166.66;5074834;28;20293;-84
2021/08/25 07:55:26;;;;;;;7.38;4.20;;;;;;;14.19;96.44;94171.22;5074590;28;20209;-82
2021/08/25 07:57:53;;;;;;;8.15;3.42;;;;;;;14.28;98.18;94171.78;5074668;28;20222;-82
2021/08/25 08:00:19;;;;;;;8.40;3.33;;;;;;;14.30;95.55;94177.59;5074582;28;20206;-81
2021/08/25 08:02:46;;;;;;;9.90;4.55;;;;;;;14.28;96.08;94180.44;5074510;28;20203;-80
2021/08/25 08:05:14;;;;;;;5.93;3.85;;;;;;;14.36;94.87;94171.50;5074162;28;20284;-81
2021/08/25 08:07:41;;;;;;;6.03;3.60;;;;;;;14.39;94.43;94171.88;5073723;28;20465;-82
2021/08/25 08:10:08;;;;;;;12.90;3.50;;;;;;;14.42;92.55;94173.25;5074515;28;20203;-82
2021/08/25 08:12:34;;;;;;;5.88;3.60;;;;;;;14.33;92.35;94159.59;5074492;28;20657;-82
2021/08/25 08:15:01;;;;;;;7.60;3.78;;;;;;;14.46;93.11;94163.94;5073169;28;20221;-82
2021/08/25 08:17:28;;;;;;;6.93;3.50;;;;;;;14.57;93.39;94163.25;5071811;28;20553;-81
2021/08/25 08:19:56;;;;;;;8.43;3.70;;;;;;;14.66;92.65;94171.69;5071837;28;20207;-81
2021/08/25 08:22:24;;;;;;;11.60;3.75;;;;;;;14.57;92.25;94159.81;5072207;28;20653;-82
2021/08/25 08:24:50;;;;;;;7.75;3.33;;;;;;;14.67;89.66;94168.06;5072221;28;20206;-81
2021/08/25 08:27:17;;;;;;;4.30;3.03;;;;;;;14.91;91.57;94169.03;5072435;28;20202;-82
2021/08/25 08:29:43;;;;;;;5.93;3.08;;;;;;;15.03;89.34;94166.47;5073000;28;20195;-82
2021/08/25 08:32:10;;;;;;;9.18;3.08;;;;;;;15.12;88.16;94170.44;5073640;28;20202;-81
2021/08/25 08:34:39;;;;;;;6.40;3.22;;;;;;;15.13;87.76;94174.66;5073836;28;20201;-81
2021/08/25 08:37:06;;;;;;;4.22;2.45;;;;;;;15.13;88.50;94172.03;5073884;28;20209;-80
2021/08/25 08:39:34;;;;;;;6.22;3.08;;;;;;;15.23;89.23;94181.25;5073896;28;20230;-81
2021/08/25 08:42:01;;;;;;;4.80;2.67;;;;;;;15.16;86.13;94176.88;5073875;28;20657;-82
2021/08/25 08:44:28;;;;;;;6.88;2.95;;;;;;;15.19;85.82;94180.91;5073038;28;20531;-82
2021/08/25 08:46:54;;;;;;;5.25;2.85;;;;;;;15.31;84.63;94173.09;5073678;28;20230;-82
2021/08/25 08:49:22;;;;;;;4.97;2.78;;;;;;;15.12;83.92;94167.81;5075568;28;20198;-82
2021/08/25 08:51:51;;;;;;;4.43;2.65;;;;;;;15.24;86.25;94177.59;5075108;28;20195;-82
2021/08/25 08:54:19;;;;;;;5.35;2.97;;;;;;;15.39;85.39;94171.97;5073712;28;20630;-82
2021/08/25 08:56:49;;;;;;;5.10;2.90;;;;;;;15.50;82.06;94166.78;5073604;28;20213;-81
2021/08/25 08:59:16;;;;;;;6.15;2.90;;;;;;;15.71;82.68;94167.34;5073072;28;20230;-81
2021/08/25 09:01:42;;;;;;;7.35;2.80;;;;;;;16.02;85.69;94163.72;5073874;28;20207;-81
2021/08/25 09:04:34;;;;;;;4.20;2.83;;;;;;;16.07;83.47;94163.00;5073787;28;20206;-80
2021/08/25 09:07:00;;;;;;;6.57;2.58;;;;;;;16.11;80.85;94158.91;5073405;28;20577;-80
2021/08/25 09:09:27;;;;;;;5.03;2.90;;;;;;;15.98;80.83;94167.00;5073322;28;20195;-83
2021/08/25 09:11:56;;;;;;;3.50;2.20;;;;;;;16.12;85.68;94167.63;5073080;28;20202;-82
2021/08/25 09:14:26;;;;;;;5.88;3.05;;;;;;;15.98;77.74;94164.38;5073635;28;20205;-82
2021/08/25 09:16:53;;;;;;;6.18;3.00;;;;;;;16.00;80.24;94170.22;5073869;28;20203;-82
2021/08/25 09:19:21;;;;;;;5.97;2.83;;;;;;;15.91;77.77;94170.53;5073031;28;20230;-82
2021/08/25 09:21:50;;;;;;;4.05;2.55;;;;;;;15.91;78.68;94169.72;5073412;28;20210;-82
2021/08/25 09:24:21;;;;;;;7.35;3.00;;;;;;;15.91;76.67;94183.69;5073526;28;20225;-81
2021/08/25 09:27:09;;;;;;;4.88;2.88;;;;;;;15.95;78.59;94180.63;5073554;28;20550;-81
2021/08/25 09:29:38;;;;;;;5.25;2.72;;;;;;;15.99;76.63;94193.13;5074191;28;20210;-82
2021/08/25 09:32:16;;;;;;;5.00;2.60;;;;;;;15.87;79.08;94174.66;5073715;28;20546;-81
2021/08/25 09:34:43;;;;;;;4.28;2.55;;;;;;;16.07;78.73;94171.75;5072903;28;20206;-81
2021/08/25 09:37:11;;;;;;;5.25;2.78;;;;;;;16.14;75.64;94176.09;5072601;28;20434;-82
2021/08/25 09:39:42;;;;;;;4.15;2.75;;;;;;;16.01;73.40;94172.63;5073713;28;20581;-82
2021/08/25 09:42:11;;;;;;;10.35;2.90;;;;;;;15.96;74.82;94174.34;5072473;28;20742;-81
2021/08/25 09:44:38;;;;;;;4.22;2.67;;;;;;;16.11;77.81;94166.03;5069976;28;20553;-80
2021/08/25 09:47:04;;;;;;;5.10;3.08;;;;;;;16.37;76.87;94175.34;5072176;28;20540;-82
2021/08/25 09:49:31;;;;;;;5.35;2.60;;;;;;;16.52;75.80;94165.19;5072642;28;20198;-82
2021/08/25 09:51:58;;;;;;;4.97;2.80;;;;;;;16.46;74.25;94166.88;5072628;28;20237;-81
2021/08/25 09:54:24;;;;;;;5.07;2.83;;;;;;;16.45;75.02;94157.41;5072571;28;20204;-80
2021/08/25 09:56:54;;;;;;;6.05;2.78;;;;;;;16.72;76.16;94156.13;5076216;28;20234;-81
2021/08/25 09:59:26;;;;;;;5.60;2.85;;;;;;;16.57;70.67;94165.31;5077109;28;20230;-81
2021/08/25 10:01:54;;;;;;;5.68;2.78;;;;;;;16.71;72.04;94157.19;5077071;28;20214;-81
2021/08/25 10:04:20;;;;;;;7.50;2.88;;;;;;;16.81;76.55;94157.41;5075375;28;20569;-80
2021/08/25 10:06:48;;;;;;;4.30;2.58;;;;;;;17.08;73.63;94155.13;5076435;28;20203;-81
2021/08/25 10:09:15;;;;;;;6.30;2.85;;;;;;;17.04;71.36;94174.28;5076468;28;20772;-81
2021/08/25 10:11:44;;;;;;;4.90;2.88;;;;;;;16.92;71.16;94166.38;5076804;28;20198;-81
2021/08/25 10:14:12;;;;;;;4.85;2.60;;;;;;;16.93;75.29;94157.44;5076515;28;20209;-81
2021/08/25 10:16:43;;;;;;;7.78;2.92;;;;;;;17.04;73.02;94158.44;5076578;28;20199;-81
2021/08/25 10:19:26;;;;;;;5.60;2.85;;;;;;;16.83;72.66;94152.72;5075639;28;20226;-84
2021/08/25 10:21:54;;;;;;;6.85;3.10;;;;;;;16.71;74.81;94138.72;5075836;28;20870;-81
2021/08/25 10:24:21;;;;;;;5.72;3.10;;;;;;;16.97;75.39;94148.00;5076685;28;20553;-83
2021/08/25 10:27:20;;;;;;;11.13;3.15;;;;;;;17.43;74.71;94143.69;5076480;28;20199;-83
2021/08/25 10:30:09;;;;;;;4.60;2.60;;;;;;;17.36;70.55;94146.47;5032755;28;20709;-82
2021/08/25 10:32:39;;;;;;;7.00;2.70;;;;;;;17.42;72.64;94143.94;5076463;28;20446;-82
2021/08/25 10:35:19;;;;;;;8.35;2.85;;;;;;;17.27;71.19;94145.25;5076365;28;20680;-81
2021/08/25 10:37:47;;;;;;;7.97;2.80;;;;;;;17.04;69.45;94143.44;5077151;28;20213;-82
2021/08/25 10:40:18;;;;;;;7.38;2.85;;;;;;;17.05;71.01;94145.03;5076652;28;20701;-84
2021/08/25 10:42:53;;;;;;;3.90;2.20;;;;;;;17.35;72.42;94139.59;5076376;28;20296;-82
2021/08/25 10:45:57;;;;;;;5.97;2.53;;;;;;;17.34;69.42;94140.63;5076041;28;20565;-82
2021/08/25 10:48:44;;;;;;;5.70;2.45;;;;;;;17.27;66.87;94137.34;5076450;28;20602;-83
2021/08/25 10:51:31;;;;;;;5.35;2.70;;;;;;;17.47;69.90;94133.47;5078049;28;20205;-82
2021/08/25 10:53:58;;;;;;;6.55;2.67;;;;;;;17.52;67.01;94129.13;5077526;28;20199;-83
2021/08/25 10:56:36;;;;;;;4.72;2.80;;;;;;;17.34;68.99;94138.00;5076340;28;20213;-82
2021/08/25 10:59:05;;;;;;;3.92;2.50;;;;;;;17.42;69.00;94121.00;5075329;28;20703;-83
2021/08/25 11:01:34;;;;;;;6.65;2.22;;;;;;;17.51;67.14;94121.41;5076381;28;20207;-83
2021/08/25 11:04:03;;;;;;;4.82;2.60;;;;;;;17.56;67.53;94124.94;5076420;28;20210;-84
2021/08/25 11:06:32;;;;;;;6.07;3.05;;;;;;;17.67;69.19;94101.38;5073935;28;20194;-82
2021/08/25 11:09:19;;;;;;;7.00;2.85;;;;;;;18.05;69.39;94103.41;5075665;28;20202;-80
2021/08/25 11:11:49;;;;;;;4.82;2.50;;;;;;;18.30;68.87;94108.31;5075518;28;20206;-81
2021/08/25 11:14:20;;;;;;;4.38;2.55;;;;;;;18.11;63.85;94109.59;5075812;28;20191;-82
2021/08/25 11:16:47;;;;;;;5.68;2.38;;;;;;;18.19;66.01;94108.41;5075995;28;20206;-82
2021/08/25 11:19:26;;;;;;;6.95;2.60;;;;;;;17.98;69.29;94100.09;5075494;28;20711;-83
2021/08/25 11:21:54;;;;;;;6.15;3.13;;;;;;;18.22;67.05;94095.50;5075421;28;20209;-81
2021/08/25 11:24:21;;;;;;;4.95;2.63;;;;;;;18.08;65.58;94095.00;5074737;28;20301;-80
2021/08/25 11:26:48;;;;;;;5.32;2.90;;;;;;;18.33;65.54;94096.44;5075016;28;20202;-81